KAUG/AUG METAR and TAF weather

Enter ICAO airport designator
Station Type Date Time Source
KAUG METAR 2023/02/05 13:53 UTC NOAA

KAUG 051353Z AUTO VRB03KT 10SM OVC049 M09/M18 A3014 RMK AO2 SLP216 T10941183


Station Type Date Time Source
KAUG Decoded METAR 2023/02/05 13:53 UTC NOAA

AUGUSTA STATE AIRPORT, ME, United States (KAUG) 44-19N 069-48W 109M
Feb 05, 2023 - 08:53 AM EST / 2023.02.05 1353 UTC
Wind: Variable at 3 MPH (3 KT):0
Visibility: 10 mile(s):0
Sky conditions: overcast
Temperature: 15.1 F (-9.4 C)
Dew Point: -0.9 F (-18.3 C)
Relative Humidity: 48%
Pressure (altimeter): 30.14 in. Hg (1020 hPa)
ob: KAUG 051353Z AUTO VRB03KT 10SM OVC049 M09/M18 A3014 RMK AO2 SLP216 T10941183
cycle: 14

Station Type Date Time Source
KAUG TAF 2023/02/05 12:22 UTC NOAA

TAF KAUG 051120Z 0512/0612 VRB03KT P6SM OVC060
FM051700 23006KT P6SM OVC120

Example: see airport list